sensor_id;sensor_type;location;lat;lon;timestamp;pressure;altitude;pressure_sealevel;temperature;humidity
81909;BME280;71372;43.514;1.512;2024-01-30T00:02:13;101375.94;;;10.95;82.55
81909;BME280;71372;43.514;1.512;2024-01-30T00:04:39;101368.06;;;10.92;82.79
81909;BME280;71372;43.514;1.512;2024-01-30T00:07:05;101370.72;;;10.92;82.97
81909;BME280;71372;43.514;1.512;2024-01-30T00:09:31;101371.63;;;10.91;83.00
81909;BME280;71372;43.514;1.512;2024-01-30T00:11:57;101378.75;;;10.90;82.97
81909;BME280;71372;43.514;1.512;2024-01-30T00:14:22;101374.31;;;10.89;83.24
81909;BME280;71372;43.514;1.512;2024-01-30T00:16:48;101361.91;;;10.90;83.04
81909;BME280;71372;43.514;1.512;2024-01-30T00:19:14;101360.13;;;10.89;83.29
81909;BME280;71372;43.514;1.512;2024-01-30T00:21:40;101367.22;;;10.90;82.97
81909;BME280;71372;43.514;1.512;2024-01-30T00:24:06;101364.59;;;10.88;83.10
81909;BME280;71372;43.514;1.512;2024-01-30T00:26:32;101353.97;;;10.87;83.25
81909;BME280;71372;43.514;1.512;2024-01-30T00:28:58;101360.22;;;10.86;83.22
81909;BME280;71372;43.514;1.512;2024-01-30T00:31:24;101353.16;;;10.84;83.08
81909;BME280;71372;43.514;1.512;2024-01-30T00:33:50;101349.56;;;10.86;83.62
81909;BME280;71372;43.514;1.512;2024-01-30T00:36:17;101357.50;;;10.87;83.38
81909;BME280;71372;43.514;1.512;2024-01-30T00:38:43;101345.97;;;10.87;83.03
81909;BME280;71372;43.514;1.512;2024-01-30T00:41:09;101345.09;;;10.86;83.01
81909;BME280;71372;43.514;1.512;2024-01-30T00:43:35;101341.63;;;10.84;83.36
81909;BME280;71372;43.514;1.512;2024-01-30T00:46:01;101344.34;;;10.82;83.11
81909;BME280;71372;43.514;1.512;2024-01-30T00:48:27;101344.34;;;10.82;83.43
81909;BME280;71372;43.514;1.512;2024-01-30T00:50:53;101351.50;;;10.80;83.19
81909;BME280;71372;43.514;1.512;2024-01-30T00:53:19;101348.88;;;10.79;83.62
81909;BME280;71372;43.514;1.512;2024-01-30T00:55:45;101340.94;;;10.77;83.73
81909;BME280;71372;43.514;1.512;2024-01-30T00:58:11;101342.69;;;10.78;83.51
81909;BME280;71372;43.514;1.512;2024-01-30T01:00:37;101345.31;;;10.80;84.22
81909;BME280;71372;43.514;1.512;2024-01-30T01:03:03;101340.84;;;10.80;83.69
81909;BME280;71372;43.514;1.512;2024-01-30T01:05:29;101349.75;;;10.79;83.56
81909;BME280;71372;43.514;1.512;2024-01-30T01:07:55;101344.44;;;10.79;83.68
81909;BME280;71372;43.514;1.512;2024-01-30T01:10:21;101343.50;;;10.80;83.34
81909;BME280;71372;43.514;1.512;2024-01-30T01:12:48;101340.03;;;10.78;83.33
81909;BME280;71372;43.514;1.512;2024-01-30T01:15:14;101339.16;;;10.76;83.48
81909;BME280;71372;43.514;1.512;2024-01-30T01:17:40;101343.59;;;10.77;83.75
81909;BME280;71372;43.514;1.512;2024-01-30T01:20:07;101352.47;;;10.76;83.97
81909;BME280;71372;43.514;1.512;2024-01-30T01:22:33;101351.59;;;10.76;83.55
81909;BME280;71372;43.514;1.512;2024-01-30T01:25:00;101354.25;;;10.77;83.70
81909;BME280;71372;43.514;1.512;2024-01-30T01:27:27;101355.16;;;10.76;83.70
81909;BME280;71372;43.514;1.512;2024-01-30T01:29:53;101365.81;;;10.76;83.67
81909;BME280;71372;43.514;1.512;2024-01-30T01:32:19;101369.38;;;10.75;83.66
81909;BME280;71372;43.514;1.512;2024-01-30T01:34:45;101362.25;;;10.76;83.62
81909;BME280;71372;43.514;1.512;2024-01-30T01:37:11;101352.47;;;10.76;83.63
81909;BME280;71372;43.514;1.512;2024-01-30T01:39:37;101354.31;;;10.74;83.68
81909;BME280;71372;43.514;1.512;2024-01-30T01:42:03;101361.34;;;10.78;83.52
81909;BME280;71372;43.514;1.512;2024-01-30T01:44:29;101362.25;;;10.77;83.63
81909;BME280;71372;43.514;1.512;2024-01-30T01:46:56;101362.16;;;10.80;83.78
81909;BME280;71372;43.514;1.512;2024-01-30T01:49:24;101367.47;;;10.80;83.43
81909;BME280;71372;43.514;1.512;2024-01-30T01:51:50;101375.59;;;10.76;84.41
81909;BME280;71372;43.514;1.512;2024-01-30T01:54:18;101372.81;;;10.80;83.83
81909;BME280;71372;43.514;1.512;2024-01-30T01:56:44;101382.50;;;10.83;83.84
81909;BME280;71372;43.514;1.512;2024-01-30T01:59:13;101381.53;;;10.86;83.65
81909;BME280;71372;43.514;1.512;2024-01-30T02:01:39;101375.34;;;10.85;83.49
81909;BME280;71372;43.514;1.512;2024-01-30T02:04:08;101368.22;;;10.86;83.87
81909;BME280;71372;43.514;1.512;2024-01-30T02:06:34;101369.03;;;10.88;83.63
81909;BME280;71372;43.514;1.512;2024-01-30T02:09:01;101369.91;;;10.90;83.91
81909;BME280;71372;43.514;1.512;2024-01-30T02:11:28;101366.31;;;10.89;84.14
81909;BME280;71372;43.514;1.512;2024-01-30T02:13:54;101364.56;;;10.90;83.97
81909;BME280;71372;43.514;1.512;2024-01-30T02:16:20;101367.22;;;10.90;83.95
81909;BME280;71372;43.514;1.512;2024-01-30T02:18:45;101367.13;;;10.93;84.27
81909;BME280;71372;43.514;1.512;2024-01-30T02:21:17;101362.69;;;10.93;83.97
81909;BME280;71372;43.514;1.512;2024-01-30T02:23:44;101365.28;;;10.95;84.27
81909;BME280;71372;43.514;1.512;2024-01-30T02:26:12;101360.78;;;10.97;84.11
81909;BME280;71372;43.514;1.512;2024-01-30T02:28:38;101366.03;;;11.00;83.98
81909;BME280;71372;43.514;1.512;2024-01-30T02:31:04;101366.03;;;11.00;83.99
81909;BME280;71372;43.514;1.512;2024-01-30T02:33:31;101362.44;;;11.01;83.88
81909;BME280;71372;43.514;1.512;2024-01-30T02:35:57;101364.22;;;11.00;84.23
81909;BME280;71372;43.514;1.512;2024-01-30T02:38:22;101372.22;;;11.02;84.19
81909;BME280;71372;43.514;1.512;2024-01-30T02:40:49;101364.22;;;11.02;83.92
81909;BME280;71372;43.514;1.512;2024-01-30T02:43:16;101370.38;;;11.04;84.01
81909;BME280;71372;43.514;1.512;2024-01-30T02:45:42;101365.00;;;11.05;83.74
81909;BME280;71372;43.514;1.512;2024-01-30T02:48:08;101364.94;;;11.07;83.96
81909;BME280;71372;43.514;1.512;2024-01-30T02:50:34;101365.75;;;11.09;83.86
81909;BME280;71372;43.514;1.512;2024-01-30T02:53:00;101370.22;;;11.08;83.91
81909;BME280;71372;43.514;1.512;2024-01-30T02:55:26;101369.31;;;11.09;83.90
81909;BME280;71372;43.514;1.512;2024-01-30T02:57:52;101355.16;;;11.07;83.63
81909;BME280;71372;43.514;1.512;2024-01-30T03:00:19;101363.19;;;11.06;84.13
81909;BME280;71372;43.514;1.512;2024-01-30T03:02:45;101361.44;;;11.05;84.28
81909;BME280;71372;43.514;1.512;2024-01-30T03:05:11;101365.88;;;11.06;84.42
81909;BME280;71372;43.514;1.512;2024-01-30T03:07:37;101363.97;;;11.09;84.48
81909;BME280;71372;43.514;1.512;2024-01-30T03:10:06;101369.25;;;11.11;84.15
81909;BME280;71372;43.514;1.512;2024-01-30T03:12:32;101364.78;;;11.11;84.29
81909;BME280;71372;43.514;1.512;2024-01-30T03:14:58;101358.53;;;11.12;84.42
81909;BME280;71372;43.514;1.512;2024-01-30T03:17:24;101366.41;;;11.17;84.21
81909;BME280;71372;43.514;1.512;2024-01-30T03:19:50;101363.84;;;11.14;84.37
81909;BME280;71372;43.514;1.512;2024-01-30T03:22:17;101373.59;;;11.15;84.33
81909;BME280;71372;43.514;1.512;2024-01-30T03:24:43;101361.97;;;11.18;84.12
81909;BME280;71372;43.514;1.512;2024-01-30T03:27:09;101362.84;;;11.18;84.62
81909;BME280;71372;43.514;1.512;2024-01-30T03:29:35;101366.41;;;11.17;83.69
81909;BME280;71372;43.514;1.512;2024-01-30T03:32:01;101363.91;;;11.11;84.59
81909;BME280;71372;43.514;1.512;2024-01-30T03:34:27;101362.22;;;11.08;84.39
81909;BME280;71372;43.514;1.512;2024-01-30T03:36:53;101369.31;;;11.09;84.04
81909;BME280;71372;43.514;1.512;2024-01-30T03:39:19;101366.78;;;11.05;84.28
81909;BME280;71372;43.514;1.512;2024-01-30T03:41:45;101373.84;;;11.06;84.10
81909;BME280;71372;43.514;1.512;2024-01-30T03:44:11;101380.09;;;11.05;84.09
81909;BME280;71372;43.514;1.512;2024-01-30T03:46:37;101365.03;;;11.04;84.43
81909;BME280;71372;43.514;1.512;2024-01-30T03:49:03;101378.38;;;11.04;84.36
81909;BME280;71372;43.514;1.512;2024-01-30T03:51:29;101377.44;;;11.05;84.18
81909;BME280;71372;43.514;1.512;2024-01-30T03:53:55;101381.84;;;11.06;84.30
81909;BME280;71372;43.514;1.512;2024-01-30T03:56:21;101386.34;;;11.04;84.31
81909;BME280;71372;43.514;1.512;2024-01-30T03:58:47;101390.81;;;11.03;84.09
81909;BME280;71372;43.514;1.512;2024-01-30T04:01:13;101390.81;;;11.03;84.41
81909;BME280;71372;43.514;1.512;2024-01-30T04:03:41;101388.19;;;11.02;84.34
81909;BME280;71372;43.514;1.512;2024-01-30T04:06:07;101398.84;;;11.02;84.24
81909;BME280;71372;43.514;1.512;2024-01-30T04:08:33;101400.59;;;11.03;84.08
81909;BME280;71372;43.514;1.512;2024-01-30T04:11:04;101389.94;;;11.03;84.11
81909;BME280;71372;43.514;1.512;2024-01-30T04:13:32;101393.53;;;11.02;84.09
81909;BME280;71372;43.514;1.512;2024-01-30T04:16:01;101393.59;;;10.99;84.41
81909;BME280;71372;43.514;1.512;2024-01-30T04:18:28;101401.59;;;10.99;84.11
81909;BME280;71372;43.514;1.512;2024-01-30T04:20:54;101401.69;;;10.96;84.08
81909;BME280;71372;43.514;1.512;2024-01-30T04:23:21;101394.75;;;10.90;84.49
81909;BME280;71372;43.514;1.512;2024-01-30T04:25:46;101393.88;;;10.90;84.32
81909;BME280;71372;43.514;1.512;2024-01-30T04:28:12;101392.97;;;10.89;84.09
81909;BME280;71372;43.514;1.512;2024-01-30T04:30:39;101389.53;;;10.86;84.04
81909;BME280;71372;43.514;1.512;2024-01-30T04:33:05;101387.88;;;10.81;84.35
81909;BME280;71372;43.514;1.512;2024-01-30T04:35:31;101400.31;;;10.81;84.10
81909;BME280;71372;43.514;1.512;2024-01-30T04:37:57;101400.44;;;10.76;84.36
81909;BME280;71372;43.514;1.512;2024-01-30T04:40:23;101399.56;;;10.76;84.50
81909;BME280;71372;43.514;1.512;2024-01-30T04:42:49;101403.19;;;10.73;84.33
81909;BME280;71372;43.514;1.512;2024-01-30T04:45:15;101404.09;;;10.72;84.23
81909;BME280;71372;43.514;1.512;2024-01-30T04:47:40;101404.16;;;10.71;84.66
81909;BME280;71372;43.514;1.512;2024-01-30T04:50:07;101401.53;;;10.69;84.69
81909;BME280;71372;43.514;1.512;2024-01-30T04:52:34;101401.53;;;10.69;84.57
81909;BME280;71372;43.514;1.512;2024-01-30T04:55:00;101409.56;;;10.68;84.24
81909;BME280;71372;43.514;1.512;2024-01-30T04:57:26;101408.75;;;10.66;84.60
81909;BME280;71372;43.514;1.512;2024-01-30T04:59:52;101420.22;;;10.68;84.71
81909;BME280;71372;43.514;1.512;2024-01-30T05:02:18;101428.25;;;10.66;84.10
81909;BME280;71372;43.514;1.512;2024-01-30T05:04:44;101422.06;;;10.66;85.10
81909;BME280;71372;43.514;1.512;2024-01-30T05:07:10;101426.47;;;10.65;84.43
81909;BME280;71372;43.514;1.512;2024-01-30T05:09:36;101431.81;;;10.65;84.50
81909;BME280;71372;43.514;1.512;2024-01-30T05:12:02;101430.00;;;10.67;85.07
81909;BME280;71372;43.514;1.512;2024-01-30T05:14:28;101428.16;;;10.69;84.82
81909;BME280;71372;43.514;1.512;2024-01-30T05:16:54;101432.53;;;10.72;84.76
81909;BME280;71372;43.514;1.512;2024-01-30T05:19:20;101441.25;;;10.77;84.73
81909;BME280;71372;43.514;1.512;2024-01-30T05:21:49;101440.31;;;10.79;84.80
81909;BME280;71372;43.514;1.512;2024-01-30T05:24:15;101445.50;;;10.84;84.72
81909;BME280;71372;43.514;1.512;2024-01-30T05:26:41;101444.50;;;10.88;84.74
81909;BME280;71372;43.514;1.512;2024-01-30T05:29:07;101455.97;;;10.92;85.09
81909;BME280;71372;43.514;1.512;2024-01-30T05:31:34;101461.13;;;10.98;84.67
81909;BME280;71372;43.514;1.512;2024-01-30T05:34:00;101467.19;;;11.04;84.41
81909;BME280;71372;43.514;1.512;2024-01-30T05:36:26;101477.66;;;11.10;84.66
81909;BME280;71372;43.514;1.512;2024-01-30T05:38:52;101469.53;;;11.15;84.66
81909;BME280;71372;43.514;1.512;2024-01-30T05:41:18;101473.91;;;11.18;84.41
81909;BME280;71372;43.514;1.512;2024-01-30T05:43:44;101472.13;;;11.18;84.40
81909;BME280;71372;43.514;1.512;2024-01-30T05:46:10;101479.16;;;11.21;84.43
81909;BME280;71372;43.514;1.512;2024-01-30T05:48:36;101481.00;;;11.19;84.53
81909;BME280;71372;43.514;1.512;2024-01-30T05:51:02;101473.88;;;11.19;84.41
81909;BME280;71372;43.514;1.512;2024-01-30T05:53:29;101472.94;;;11.20;84.12
81909;BME280;71372;43.514;1.512;2024-01-30T05:55:55;101469.41;;;11.20;84.13
81909;BME280;71372;43.514;1.512;2024-01-30T05:58:21;101474.84;;;11.17;84.44
81909;BME280;71372;43.514;1.512;2024-01-30T06:00:47;101473.97;;;11.16;84.43
81909;BME280;71372;43.514;1.512;2024-01-30T06:03:13;101470.41;;;11.16;84.37
81909;BME280;71372;43.514;1.512;2024-01-30T06:05:39;101477.59;;;11.13;84.61
81909;BME280;71372;43.514;1.512;2024-01-30T06:08:05;101473.03;;;11.17;84.58
81909;BME280;71372;43.514;1.512;2024-01-30T06:10:31;101476.53;;;11.19;84.38
81909;BME280;71372;43.514;1.512;2024-01-30T06:12:57;101475.75;;;11.16;84.45
81909;BME280;71372;43.514;1.512;2024-01-30T06:15:23;101469.59;;;11.12;84.64
81909;BME280;71372;43.514;1.512;2024-01-30T06:17:49;101464.31;;;11.10;84.41
81909;BME280;71372;43.514;1.512;2024-01-30T06:20:15;101462.66;;;11.06;84.40
81909;BME280;71372;43.514;1.512;2024-01-30T06:22:41;101466.25;;;11.05;84.53
81909;BME280;71372;43.514;1.512;2024-01-30T06:25:07;101468.13;;;11.02;84.86
81909;BME280;71372;43.514;1.512;2024-01-30T06:27:33;101470.91;;;10.97;84.66
81909;BME280;71372;43.514;1.512;2024-01-30T06:29:59;101470.91;;;10.97;84.72
81909;BME280;71372;43.514;1.512;2024-01-30T06:32:25;101480.78;;;10.94;84.83
81909;BME280;71372;43.514;1.512;2024-01-30T06:34:51;101477.19;;;10.95;84.68
81909;BME280;71372;43.514;1.512;2024-01-30T06:37:17;101475.47;;;10.94;85.18
81909;BME280;71372;43.514;1.512;2024-01-30T06:39:43;101486.91;;;10.97;84.84
81909;BME280;71372;43.514;1.512;2024-01-30T06:42:09;101489.59;;;10.96;85.13
81909;BME280;71372;43.514;1.512;2024-01-30T06:44:35;101493.09;;;10.98;85.04
81909;BME280;71372;43.514;1.512;2024-01-30T06:47:01;101507.19;;;11.03;84.93
81909;BME280;71372;43.514;1.512;2024-01-30T06:49:27;101501.78;;;11.06;84.89
81909;BME280;71372;43.514;1.512;2024-01-30T06:51:53;101503.44;;;11.10;84.69
81909;BME280;71372;43.514;1.512;2024-01-30T06:54:19;101506.88;;;11.15;84.79
81909;BME280;71372;43.514;1.512;2024-01-30T06:56:45;101497.84;;;11.19;84.64
81909;BME280;71372;43.514;1.512;2024-01-30T06:59:10;101499.59;;;11.20;84.27
81909;BME280;71372;43.514;1.512;2024-01-30T07:01:36;101512.00;;;11.21;85.18
81909;BME280;71372;43.514;1.512;2024-01-30T07:04:02;101506.59;;;11.24;84.64
81909;BME280;71372;43.514;1.512;2024-01-30T07:06:28;101514.44;;;11.30;84.47
81909;BME280;71372;43.514;1.512;2024-01-30T07:08:54;101509.94;;;11.32;84.27
81909;BME280;71372;43.514;1.512;2024-01-30T07:11:21;101505.47;;;11.33;84.46
81909;BME280;71372;43.514;1.512;2024-01-30T07:13:48;101511.56;;;11.36;84.55
81909;BME280;71372;43.514;1.512;2024-01-30T07:16:15;101513.41;;;11.34;84.46
81909;BME280;71372;43.514;1.512;2024-01-30T07:18:41;101517.88;;;11.34;84.55
81909;BME280;71372;43.514;1.512;2024-01-30T07:21:07;101517.88;;;11.34;84.55
81909;BME280;71372;43.514;1.512;2024-01-30T07:23:33;101525.91;;;11.32;84.63
81909;BME280;71372;43.514;1.512;2024-01-30T07:26:01;101525.91;;;11.32;84.79
81909;BME280;71372;43.514;1.512;2024-01-30T07:28:27;101533.88;;;11.34;84.27
81909;BME280;71372;43.514;1.512;2024-01-30T07:30:53;101536.50;;;11.35;84.68
81909;BME280;71372;43.514;1.512;2024-01-30T07:33:19;101541.66;;;11.41;84.40
81909;BME280;71372;43.514;1.512;2024-01-30T07:35:45;101539.88;;;11.42;84.44
81909;BME280;71372;43.514;1.512;2024-01-30T07:38:11;101541.47;;;11.48;84.53
81909;BME280;71372;43.514;1.512;2024-01-30T07:40:37;101544.91;;;11.53;84.25
81909;BME280;71372;43.514;1.512;2024-01-30T07:43:03;101543.94;;;11.55;84.55
81909;BME280;71372;43.514;1.512;2024-01-30T07:45:29;101541.13;;;11.60;84.59
81909;BME280;71372;43.514;1.512;2024-01-30T07:47:58;101542.81;;;11.64;84.14
81909;BME280;71372;43.514;1.512;2024-01-30T07:50:25;101541.84;;;11.66;83.95
81909;BME280;71372;43.514;1.512;2024-01-30T07:52:51;101542.69;;;11.68;83.85
81909;BME280;71372;43.514;1.512;2024-01-30T07:55:52;101543.59;;;11.67;83.98
81909;BME280;71372;43.514;1.512;2024-01-30T07:58:18;101540.88;;;11.69;83.92
81909;BME280;71372;43.514;1.512;2024-01-30T08:00:45;101555.03;;;11.71;83.94
81909;BME280;71372;43.514;1.512;2024-01-30T08:03:11;101560.31;;;11.74;84.15
81909;BME280;71372;43.514;1.512;2024-01-30T08:05:37;101563.66;;;11.82;83.61
81909;BME280;71372;43.514;1.512;2024-01-30T08:08:05;101568.00;;;11.86;84.02
81909;BME280;71372;43.514;1.512;2024-01-30T08:10:30;101575.81;;;11.92;83.58
81909;BME280;71372;43.514;1.512;2024-01-30T08:12:56;101573.03;;;11.97;83.60
81909;BME280;71372;43.514;1.512;2024-01-30T08:15:22;101573.59;;;12.07;83.64
81909;BME280;71372;43.514;1.512;2024-01-30T08:17:48;101578.78;;;12.13;83.55
81909;BME280;71372;43.514;1.512;2024-01-30T08:20:14;101580.41;;;12.17;83.30
81909;BME280;71372;43.514;1.512;2024-01-30T08:22:40;101582.66;;;12.30;83.21
81909;BME280;71372;43.514;1.512;2024-01-30T08:25:07;101570.78;;;12.41;83.22
81909;BME280;71372;43.514;1.512;2024-01-30T08:27:33;101568.59;;;12.53;83.10
81909;BME280;71372;43.514;1.512;2024-01-30T08:30:02;101571.13;;;12.58;82.65
81909;BME280;71372;43.514;1.512;2024-01-30T08:32:28;101571.91;;;12.62;82.26
81909;BME280;71372;43.514;1.512;2024-01-30T08:34:53;101569.88;;;12.70;82.39
81909;BME280;71372;43.514;1.512;2024-01-30T08:37:19;101565.22;;;12.75;82.49
81909;BME280;71372;43.514;1.512;2024-01-30T08:39:45;101566.84;;;12.80;82.25
81909;BME280;71372;43.514;1.512;2024-01-30T08:42:11;101561.50;;;12.80;82.14
81909;BME280;71372;43.514;1.512;2024-01-30T08:44:37;101559.53;;;12.85;81.64
81909;BME280;71372;43.514;1.512;2024-01-30T08:47:04;101562.25;;;12.84;81.93
81909;BME280;71372;43.514;1.512;2024-01-30T08:49:30;101572.03;;;12.85;81.51
81909;BME280;71372;43.514;1.512;2024-01-30T08:51:56;101572.94;;;12.84;81.47
81909;BME280;71372;43.514;1.512;2024-01-30T08:54:23;101574.69;;;12.85;81.53
81909;BME280;71372;43.514;1.512;2024-01-30T08:56:49;101581.84;;;12.84;81.40
81909;BME280;71372;43.514;1.512;2024-01-30T08:59:15;101581.50;;;12.95;81.00
81909;BME280;71372;43.514;1.512;2024-01-30T09:01:41;101577.53;;;13.07;81.40
81909;BME280;71372;43.514;1.512;2024-01-30T09:04:07;101584.19;;;13.22;81.11
81909;BME280;71372;43.514;1.512;2024-01-30T09:06:33;101582.00;;;13.33;80.71
81909;BME280;71372;43.514;1.512;2024-01-30T09:08:59;101586.16;;;13.41;80.60
81909;BME280;71372;43.514;1.512;2024-01-30T09:11:25;101582.19;;;13.53;80.17
81909;BME280;71372;43.514;1.512;2024-01-30T09:13:50;101588.91;;;13.65;79.97
81909;BME280;71372;43.514;1.512;2024-01-30T09:16:16;101594.78;;;13.74;79.69
81909;BME280;71372;43.514;1.512;2024-01-30T09:18:42;101594.34;;;13.87;79.39
81909;BME280;71372;43.514;1.512;2024-01-30T09:21:09;101595.72;;;13.97;78.77
81909;BME280;71372;43.514;1.512;2024-01-30T09:23:35;101596.38;;;14.03;78.42
81909;BME280;71372;43.514;1.512;2024-01-30T09:26:01;101603.31;;;14.09;78.31
81909;BME280;71372;43.514;1.512;2024-01-30T09:28:28;101603.41;;;14.06;77.67
81909;BME280;71372;43.514;1.512;2024-01-30T09:30:54;101603.31;;;14.09;77.44
81909;BME280;71372;43.514;1.512;2024-01-30T09:33:20;101611.22;;;14.12;77.52
81909;BME280;71372;43.514;1.512;2024-01-30T09:35:46;101621.88;;;14.14;77.57
81909;BME280;71372;43.514;1.512;2024-01-30T09:38:12;101619.31;;;14.11;77.43
81909;BME280;71372;43.514;1.512;2024-01-30T09:40:38;101619.31;;;14.11;77.13
81909;BME280;71372;43.514;1.512;2024-01-30T09:43:04;101620.06;;;14.14;76.83
81909;BME280;71372;43.514;1.512;2024-01-30T09:45:32;101635.09;;;14.18;76.67
81909;BME280;71372;43.514;1.512;2024-01-30T09:47:59;101634.22;;;14.18;76.34
81909;BME280;71372;43.514;1.512;2024-01-30T09:50:25;101631.66;;;14.15;76.07
81909;BME280;71372;43.514;1.512;2024-01-30T09:52:51;101648.47;;;14.18;76.21
81909;BME280;71372;43.514;1.512;2024-01-30T09:55:18;101645.00;;;14.16;75.96
81909;BME280;71372;43.514;1.512;2024-01-30T09:57:44;101644.25;;;14.13;76.09
81909;BME280;71372;43.514;1.512;2024-01-30T10:00:11;101644.38;;;14.08;75.72
81909;BME280;71372;43.514;1.512;2024-01-30T10:02:38;101638.81;;;14.14;75.57
81909;BME280;71372;43.514;1.512;2024-01-30T10:05:04;101641.38;;;14.17;75.36
81909;BME280;71372;43.514;1.512;2024-01-30T10:07:30;101636.03;;;14.17;74.97
81909;BME280;71372;43.514;1.512;2024-01-30T10:09:56;101641.16;;;14.23;75.35
81909;BME280;71372;43.514;1.512;2024-01-30T10:12:23;101632.13;;;14.26;75.31
81909;BME280;71372;43.514;1.512;2024-01-30T10:14:51;101637.31;;;14.30;74.83
81909;BME280;71372;43.514;1.512;2024-01-30T10:17:17;101639.88;;;14.33;74.79
81909;BME280;71372;43.514;1.512;2024-01-30T10:19:43;101635.41;;;14.34;74.99
81909;BME280;71372;43.514;1.512;2024-01-30T10:22:09;101645.19;;;14.35;75.03
81909;BME280;71372;43.514;1.512;2024-01-30T10:24:35;101634.41;;;14.37;74.54
81909;BME280;71372;43.514;1.512;2024-01-30T10:27:01;101640.63;;;14.37;74.61
81909;BME280;71372;43.514;1.512;2024-01-30T10:29:28;101626.38;;;14.37;74.22
81909;BME280;71372;43.514;1.512;2024-01-30T10:32:00;101635.41;;;14.34;74.31
81909;BME280;71372;43.514;1.512;2024-01-30T10:34:27;101622.06;;;14.32;74.60
81909;BME280;71372;43.514;1.512;2024-01-30T10:37:05;101616.81;;;14.29;73.90
81909;BME280;71372;43.514;1.512;2024-01-30T10:39:37;101623.63;;;14.38;74.42
81909;BME280;71372;43.514;1.512;2024-01-30T10:42:04;101619.19;;;14.37;74.15
81909;BME280;71372;43.514;1.512;2024-01-30T10:44:39;101624.75;;;14.32;72.99
81909;BME280;71372;43.514;1.512;2024-01-30T10:47:11;101619.31;;;14.34;73.62
81909;BME280;71372;43.514;1.512;2024-01-30T10:49:41;101614.72;;;14.38;73.86
81909;BME280;71372;43.514;1.512;2024-01-30T10:52:10;101615.50;;;14.40;73.98
81909;BME280;71372;43.514;1.512;2024-01-30T10:54:36;101613.66;;;14.42;73.94
81909;BME280;71372;43.514;1.512;2024-01-30T10:57:03;101604.88;;;14.38;73.48
81909;BME280;71372;43.514;1.512;2024-01-30T10:59:30;101606.59;;;14.39;73.38
81909;BME280;71372;43.514;1.512;2024-01-30T11:01:58;101595.22;;;14.34;73.00
81909;BME280;71372;43.514;1.512;2024-01-30T11:04:25;101600.63;;;14.32;72.77
81909;BME280;71372;43.514;1.512;2024-01-30T11:06:51;101586.47;;;14.29;73.18
81909;BME280;71372;43.514;1.512;2024-01-30T11:09:17;101593.56;;;14.30;73.42
81909;BME280;71372;43.514;1.512;2024-01-30T11:11:56;101587.97;;;14.36;72.79
81909;BME280;71372;43.514;1.512;2024-01-30T11:14:27;101579.56;;;14.47;73.27
81909;BME280;71372;43.514;1.512;2024-01-30T11:16:53;101590.81;;;14.55;73.13
81909;BME280;71372;43.514;1.512;2024-01-30T11:19:23;101580.94;;;14.57;72.10
81909;BME280;71372;43.514;1.512;2024-01-30T11:21:51;101587.97;;;14.59;72.84
81909;BME280;71372;43.514;1.512;2024-01-30T11:24:20;101585.81;;;14.69;72.64
81909;BME280;71372;43.514;1.512;2024-01-30T11:26:55;101582.06;;;14.73;71.95
81909;BME280;71372;43.514;1.512;2024-01-30T11:29:25;101582.66;;;14.80;72.10
81909;BME280;71372;43.514;1.512;2024-01-30T11:31:53;101579.81;;;14.84;72.08
81909;BME280;71372;43.514;1.512;2024-01-30T11:34:20;101578.50;;;14.95;72.13
81909;BME280;71372;43.514;1.512;2024-01-30T11:37:00;101585.97;;;14.86;70.94
81909;BME280;71372;43.514;1.512;2024-01-30T11:39:29;101569.63;;;14.93;71.74
81909;BME280;71372;43.514;1.512;2024-01-30T11:41:55;101576.75;;;14.94;71.34
81909;BME280;71372;43.514;1.512;2024-01-30T11:44:22;101556.59;;;15.05;71.35
81909;BME280;71372;43.514;1.512;2024-01-30T11:46:50;101556.66;;;15.04;70.80
81909;BME280;71372;43.514;1.512;2024-01-30T11:49:16;101556.50;;;15.07;70.20
81909;BME280;71372;43.514;1.512;2024-01-30T11:51:45;101553.31;;;15.19;70.23
81909;BME280;71372;43.514;1.512;2024-01-30T11:54:11;101552.91;;;15.28;70.44
81909;BME280;71372;43.514;1.512;2024-01-30T11:56:37;101554.50;;;15.32;69.89
81909;BME280;71372;43.514;1.512;2024-01-30T11:59:04;101548.81;;;15.40;69.88
81909;BME280;71372;43.514;1.512;2024-01-30T12:01:31;101546.06;;;15.41;69.37
81909;BME280;71372;43.514;1.512;2024-01-30T12:03:59;101550.47;;;15.42;69.28
81909;BME280;71372;43.514;1.512;2024-01-30T12:06:25;101543.22;;;15.44;68.95
81909;BME280;71372;43.514;1.512;2024-01-30T12:09:02;101544.75;;;15.50;68.83
81909;BME280;71372;43.514;1.512;2024-01-30T12:11:31;101553.75;;;15.49;69.18
81909;BME280;71372;43.514;1.512;2024-01-30T12:13:57;101547.72;;;15.44;68.67
81909;BME280;71372;43.514;1.512;2024-01-30T12:16:23;101537.66;;;15.49;68.77
81909;BME280;71372;43.514;1.512;2024-01-30T12:18:59;101533.84;;;15.55;68.57
81909;BME280;71372;43.514;1.512;2024-01-30T12:21:25;101532.59;;;15.63;68.93
81909;BME280;71372;43.514;1.512;2024-01-30T12:23:51;101526.19;;;15.66;68.63
81909;BME280;71372;43.514;1.512;2024-01-30T12:26:17;101523.69;;;15.61;68.52
81909;BME280;71372;43.514;1.512;2024-01-30T12:28:49;101524.22;;;15.69;68.02
81909;BME280;71372;43.514;1.512;2024-01-30T12:31:18;101521.41;;;15.72;68.25
81909;BME280;71372;43.514;1.512;2024-01-30T12:33:44;101518.72;;;15.72;68.09
81909;BME280;71372;43.514;1.512;2024-01-30T12:36:11;101516.91;;;15.73;67.75
81909;BME280;71372;43.514;1.512;2024-01-30T12:38:37;101518.44;;;15.78;67.58
81909;BME280;71372;43.514;1.512;2024-01-30T12:41:03;101507.47;;;15.83;67.92
81909;BME280;71372;43.514;1.512;2024-01-30T12:43:29;101520.19;;;15.79;67.31
81909;BME280;71372;43.514;1.512;2024-01-30T12:45:55;101519.09;;;15.84;67.35
81909;BME280;71372;43.514;1.512;2024-01-30T12:48:21;101524.19;;;15.90;67.23